Time;durP1;ratioP1;P1;durP2;ratioP2;P2;SDS_P1;SDS_P2;PMS_P1;PMS_P2;Temp;Humidity;BMP_temperature;BMP_pressure;BME280_temperature;BME280_humidity;BME280_pressure;Samples;Min_cycle;Max_cycle;Signal;HPM_P1;HPM_P2
2024/02/01 00:01:37;;;;;;;26.80;18.70;;;;;;;1.82;86.65;97504.79;109119;1272;22462;-76
2024/02/01 00:04:10;;;;;;;29.10;18.40;;;;;;;1.71;86.77;97499.11;108219;1256;1225980;-75
2024/02/01 00:06:42;;;;;;;26.50;17.40;;;;;;;1.59;86.49;97497.92;109132;1269;22514;-76
2024/02/01 00:09:16;;;;;;;25.40;16.80;;;;;;;1.52;86.93;97491.20;109099;1269;22674;-76
2024/02/01 00:11:52;;;;;;;27.30;16.60;;;;;;;1.46;86.82;97488.23;109112;1272;22812;-76
2024/02/01 00:14:24;;;;;;;26.10;16.60;;;;;;;1.36;86.92;97487.23;109085;1266;22479;-75
2024/02/01 00:16:57;;;;;;;24.90;14.00;;;;;;;1.34;87.32;97480.11;109115;1272;25241;-76
2024/02/01 00:19:28;;;;;;;25.10;14.90;;;;;;;1.50;88.25;97478.30;109128;1267;22691;-76
2024/02/01 00:22:01;;;;;;;23.60;13.90;;;;;;;1.55;88.22;97471.64;109082;1273;24214;-76
2024/02/01 00:24:32;;;;;;;18.20;10.90;;;;;;;1.52;88.25;97467.72;109084;1273;24187;-76
2024/02/01 00:27:06;;;;;;;16.30;9.80;;;;;;;1.57;88.97;97461.62;109096;1266;25238;-76
2024/02/01 00:29:39;;;;;;;16.60;10.50;;;;;;;1.70;89.28;97454.39;109133;1272;22532;-75
2024/02/01 00:32:17;;;;;;;17.50;9.20;;;;;;;1.81;89.59;97455.88;109098;1273;31689;-76
2024/02/01 00:34:48;;;;;;;19.70;10.30;;;;;;;1.88;89.74;97447.36;109085;1266;25291;-76
2024/02/01 00:37:19;;;;;;;19.70;11.20;;;;;;;1.99;90.20;97441.15;109088;1251;22529;-76
2024/02/01 00:39:53;;;;;;;18.40;9.30;;;;;;;2.02;89.80;97438.65;109082;1273;23869;-76
2024/02/01 00:42:26;;;;;;;16.70;10.60;;;;;;;2.06;89.83;97435.34;109100;1269;27093;-76
2024/02/01 00:44:59;;;;;;;14.40;9.90;;;;;;;2.04;89.57;97435.83;109147;1272;25416;-76
2024/02/01 00:47:35;;;;;;;14.80;9.30;;;;;;;1.99;89.40;97427.80;109128;1269;22536;-76
2024/02/01 00:50:09;;;;;;;18.90;11.70;;;;;;;1.98;89.52;97416.66;109111;1273;22557;-76
2024/02/01 00:52:40;;;;;;;20.20;12.40;;;;;;;1.96;89.33;97411.73;109096;1272;22647;-76
2024/02/01 00:55:17;;;;;;;20.80;13.00;;;;;;;1.94;89.32;97410.61;109191;1273;22530;-76
2024/02/01 00:57:50;;;;;;;20.50;12.50;;;;;;;1.94;89.50;97405.38;109099;1273;22608;-76
2024/02/01 01:00:26;;;;;;;19.40;12.20;;;;;;;1.96;89.59;97404.73;109141;1269;22497;-76
2024/02/01 01:03:00;;;;;;;18.70;12.10;;;;;;;1.96;89.53;97401.20;109136;1269;23777;-76
2024/02/01 01:05:32;;;;;;;18.10;11.80;;;;;;;1.98;89.53;97391.39;109164;1266;23313;-75
2024/02/01 01:08:03;;;;;;;15.60;10.30;;;;;;;2.00;89.60;97386.20;109121;1272;22550;-76
2024/02/01 01:10:39;;;;;;;16.20;10.80;;;;;;;1.99;89.46;97384.52;109114;1273;22548;-76
2024/02/01 01:13:11;;;;;;;18.20;11.80;;;;;;;1.95;89.39;97370.66;109081;1273;22472;-75
2024/02/01 01:15:44;;;;;;;19.30;12.50;;;;;;;1.91;89.28;97366.50;109162;1269;22537;-76
2024/02/01 01:18:16;;;;;;;19.40;13.40;;;;;;;1.88;89.31;97360.40;109104;1273;22497;-75
2024/02/01 01:20:52;;;;;;;16.50;10.70;;;;;;;1.83;89.21;97353.44;109094;1271;22552;-76
2024/02/01 01:23:23;;;;;;;18.60;10.40;;;;;;;1.78;89.25;97346.24;109101;1273;22520;-75
2024/02/01 01:25:54;;;;;;;17.30;8.90;;;;;;;1.76;89.23;97339.86;109078;1272;22525;-76
2024/02/01 01:28:25;;;;;;;14.60;7.90;;;;;;;1.83;89.54;97336.63;109102;1269;22518;-75
2024/02/01 01:30:58;;;;;;;17.70;8.20;;;;;;;1.89;89.45;97337.50;109103;1270;22483;-76
2024/02/01 01:33:29;;;;;;;12.00;6.20;;;;;;;1.95;89.85;97338.41;109077;1266;22534;-76
2024/02/01 01:36:00;;;;;;;10.20;6.10;;;;;;;2.04;90.08;97339.88;109107;1273;22521;-75
2024/02/01 01:38:31;;;;;;;14.60;7.10;;;;;;;2.21;90.74;97344.80;109096;1269;22544;-75
2024/02/01 01:41:04;;;;;;;11.10;6.00;;;;;;;2.29;90.57;97343.61;109082;1272;22517;-75
2024/02/01 01:43:35;;;;;;;11.10;7.00;;;;;;;2.31;90.23;97342.92;109124;1272;23915;-76
2024/02/01 01:46:08;;;;;;;11.60;6.30;;;;;;;2.30;89.96;97335.40;109115;1269;22566;-76
2024/02/01 01:48:44;;;;;;;11.30;6.10;;;;;;;2.40;90.49;97328.35;109110;1272;22503;-76
2024/02/01 01:51:17;;;;;;;8.40;4.60;;;;;;;2.52;90.33;97322.48;109117;1272;25498;-76
2024/02/01 01:53:52;;;;;;;10.80;6.20;;;;;;;2.52;89.91;97323.53;109095;1272;25320;-76
2024/02/01 01:56:23;;;;;;;11.30;6.30;;;;;;;2.53;89.77;97323.34;109139;1272;22607;-76
2024/02/01 01:59:00;;;;;;;13.90;7.90;;;;;;;2.51;89.29;97311.70;109139;1272;22550;-76
2024/02/01 02:01:31;;;;;;;14.70;8.80;;;;;;;2.42;88.96;97308.38;109067;1273;22575;-76
2024/02/01 02:04:09;;;;;;;12.00;7.40;;;;;;;2.34;88.82;97303.34;109110;1272;22648;-76
2024/02/01 02:06:43;;;;;;;13.30;7.90;;;;;;;2.28;88.62;97299.96;109146;1273;22497;-75
2024/02/01 02:09:18;;;;;;;13.30;7.60;;;;;;;2.21;88.37;97288.30;109102;1272;22618;-76
2024/02/01 02:11:51;;;;;;;14.60;8.00;;;;;;;2.17;88.48;97289.98;109119;1272;23550;-76
2024/02/01 02:14:22;;;;;;;15.20;7.40;;;;;;;2.14;88.52;97281.08;109099;1272;24046;-76
2024/02/01 02:16:58;;;;;;;10.90;5.70;;;;;;;2.12;88.32;97273.19;109145;1273;22518;-76
2024/02/01 02:19:30;;;;;;;9.10;4.90;;;;;;;2.11;88.26;97265.45;109082;1272;24014;-76
2024/02/01 02:22:12;;;;;;;10.30;6.00;;;;;;;2.16;88.31;97262.27;109084;1269;22529;-76
2024/02/01 02:24:43;;;;;;;9.50;6.20;;;;;;;2.13;87.96;97255.15;109146;1272;22465;-76
2024/02/01 02:27:16;;;;;;;10.10;5.90;;;;;;;2.08;87.73;97248.85;109161;1266;22528;-76
2024/02/01 02:29:50;;;;;;;9.00;5.80;;;;;;;2.09;87.91;97236.33;109129;1272;22575;-75
2024/02/01 02:32:23;;;;;;;7.50;4.50;;;;;;;2.18;88.06;97229.34;109107;1272;22528;-76
2024/02/01 02:35:00;;;;;;;9.40;5.50;;;;;;;2.34;88.34;97222.19;109104;1270;24180;-76
2024/02/01 02:37:31;;;;;;;8.60;5.30;;;;;;;2.44;88.01;97216.74;109072;1267;25329;-76
2024/02/01 02:40:04;;;;;;;7.30;4.30;;;;;;;2.39;87.48;97211.77;109127;1269;22520;-76
2024/02/01 02:42:35;;;;;;;9.60;5.40;;;;;;;2.41;87.70;97205.36;109136;1272;22547;-76
2024/02/01 02:45:07;;;;;;;8.10;5.20;;;;;;;2.45;87.32;97205.34;109127;1272;22566;-76
2024/02/01 02:47:38;;;;;;;8.50;4.30;;;;;;;2.43;87.01;97192.08;109117;1272;24219;-75
2024/02/01 02:50:14;;;;;;;7.90;5.00;;;;;;;2.47;87.13;97187.21;109116;1272;22548;-75
2024/02/01 02:52:47;;;;;;;9.90;5.00;;;;;;;2.48;86.78;97184.50;109129;1270;22521;-75
2024/02/01 02:55:22;;;;;;;8.60;4.70;;;;;;;2.45;86.75;97175.20;109139;1273;23253;-76
2024/02/01 02:57:56;;;;;;;7.10;3.70;;;;;;;2.53;86.69;97174.16;109083;1266;22532;-75
2024/02/01 03:00:32;;;;;;;6.30;3.30;;;;;;;2.58;86.40;97170.75;109130;1265;22659;-76
2024/02/01 03:03:04;;;;;;;9.50;5.40;;;;;;;2.60;86.16;97160.29;109102;1249;22528;-76
2024/02/01 03:05:35;;;;;;;7.50;4.50;;;;;;;2.61;85.94;97163.30;109129;1266;22585;-76
2024/02/01 03:08:13;;;;;;;7.90;3.80;;;;;;;2.61;85.81;97162.03;109151;1272;23750;-76
2024/02/01 03:10:50;;;;;;;7.30;4.70;;;;;;;2.60;85.58;97155.67;109167;1272;22616;-76
2024/02/01 03:13:21;;;;;;;8.30;3.90;;;;;;;2.59;85.28;97147.10;109107;1272;22573;-76
2024/02/01 03:15:57;;;;;;;7.30;4.00;;;;;;;2.58;85.27;97138.70;109108;1272;23825;-75
2024/02/01 03:18:28;;;;;;;6.90;3.60;;;;;;;2.64;85.24;97140.52;109099;1272;22671;-76
2024/02/01 03:20:59;;;;;;;8.10;4.20;;;;;;;2.64;84.95;97129.82;109136;1266;22678;-75
2024/02/01 03:23:33;;;;;;;11.30;5.80;;;;;;;2.63;84.86;97118.80;109087;1272;22528;-76
2024/02/01 03:26:07;;;;;;;8.60;4.80;;;;;;;2.65;84.90;97112.00;109119;1267;22561;-76
2024/02/01 03:28:40;;;;;;;9.00;5.20;;;;;;;2.68;84.80;97113.00;109072;1267;22479;-75
2024/02/01 03:31:14;;;;;;;9.60;5.60;;;;;;;2.73;84.59;97105.59;109101;1256;22553;-75
2024/02/01 03:33:50;;;;;;;8.00;5.20;;;;;;;2.75;84.62;97098.64;109098;1272;22531;-75
2024/02/01 03:36:24;;;;;;;7.00;3.80;;;;;;;2.76;84.40;97100.35;109118;1267;22534;-75
2024/02/01 03:38:57;;;;;;;8.70;5.10;;;;;;;2.77;84.35;97079.96;109112;1273;22585;-76
2024/02/01 03:41:31;;;;;;;7.90;4.70;;;;;;;2.77;84.14;97091.31;109132;1270;22472;-75
2024/02/01 03:44:10;;;;;;;10.90;5.60;;;;;;;2.78;84.06;97082.33;109079;1273;27228;-75
2024/02/01 03:46:42;;;;;;;8.10;5.00;;;;;;;2.76;84.03;97076.78;109094;1273;22560;-76
2024/02/01 03:49:16;;;;;;;10.60;5.20;;;;;;;2.78;83.99;97085.27;109164;1272;22568;-76
2024/02/01 03:51:50;;;;;;;8.80;5.00;;;;;;;2.80;83.85;97087.33;109090;1273;24114;-76
2024/02/01 03:54:21;;;;;;;7.70;4.10;;;;;;;2.82;83.74;97085.98;109140;1271;22627;-75
2024/02/01 03:56:55;;;;;;;8.00;3.90;;;;;;;2.86;83.55;97084.63;109117;1273;25301;-75
2024/02/01 03:59:31;;;;;;;8.30;5.30;;;;;;;2.85;83.36;97096.33;109107;1267;22569;-76
2024/02/01 04:02:07;;;;;;;11.20;6.30;;;;;;;2.89;83.11;97076.14;109109;1267;23436;-76
2024/02/01 04:04:44;;;;;;;10.30;6.60;;;;;;;2.91;82.76;97111.91;109152;1273;22616;-76
2024/02/01 04:07:20;;;;;;;7.90;4.40;;;;;;;2.94;82.46;97112.09;109144;1268;22515;-76
2024/02/01 04:09:55;;;;;;;11.30;4.90;;;;;;;2.91;82.20;97119.24;109114;1267;22517;-76
2024/02/01 04:12:28;;;;;;;8.60;4.80;;;;;;;2.85;82.22;97141.75;109071;1272;24112;-76
2024/02/01 04:15:02;;;;;;;5.80;3.30;;;;;;;2.81;82.30;97148.48;109156;1272;25085;-76
2024/02/01 04:17:35;;;;;;;7.50;3.80;;;;;;;2.82;82.22;97146.25;109100;1272;22472;-76
2024/02/01 04:20:13;;;;;;;7.50;4.40;;;;;;;2.79;81.95;97158.88;109142;1273;22656;-76
2024/02/01 04:22:49;;;;;;;7.10;4.10;;;;;;;2.74;81.77;97164.69;109135;1273;22517;-76
2024/02/01 04:25:23;;;;;;;6.40;4.00;;;;;;;2.67;81.76;97165.43;109142;1267;22521;-76
2024/02/01 04:27:56;;;;;;;7.50;4.70;;;;;;;2.60;81.74;97167.82;109110;1269;22458;-76
2024/02/01 04:30:32;;;;;;;7.90;4.10;;;;;;;2.59;81.80;97165.34;109127;1272;22533;-76
2024/02/01 04:33:07;;;;;;;6.80;3.50;;;;;;;2.60;81.96;97159.33;109080;1270;22462;-76
2024/02/01 04:35:40;;;;;;;6.90;4.00;;;;;;;2.61;81.87;97155.29;109138;1272;22524;-76
2024/02/01 04:38:11;;;;;;;6.60;4.10;;;;;;;2.66;81.86;97149.36;109081;1267;22590;-76
2024/02/01 04:40:43;;;;;;;7.10;4.80;;;;;;;2.62;81.73;97148.00;109126;1269;22569;-76
2024/02/01 04:43:19;;;;;;;9.70;4.80;;;;;;;2.61;81.88;97139.48;109130;1272;22695;-76
2024/02/01 04:45:50;;;;;;;8.00;4.80;;;;;;;2.68;81.85;97130.73;109137;1267;23050;-76
2024/02/01 04:48:23;;;;;;;7.30;4.30;;;;;;;2.66;81.59;97130.73;109144;1272;22565;-76
2024/02/01 04:50:54;;;;;;;7.80;4.90;;;;;;;2.59;81.40;97130.84;109112;1251;22543;-76
2024/02/01 04:53:25;;;;;;;8.30;4.90;;;;;;;2.53;81.52;97125.80;109137;1273;25424;-76
2024/02/01 04:55:59;;;;;;;7.20;4.30;;;;;;;2.49;81.67;97119.56;109085;1272;24153;-76
2024/02/01 04:58:34;;;;;;;7.00;4.50;;;;;;;2.54;81.89;97117.48;109101;1270;22555;-76
2024/02/01 05:01:09;;;;;;;9.30;4.20;;;;;;;2.59;82.12;97117.11;109136;1267;25412;-76
2024/02/01 05:03:43;;;;;;;6.80;4.00;;;;;;;2.66;81.82;97111.71;109142;1273;25231;-76
2024/02/01 05:06:19;;;;;;;10.60;4.30;;;;;;;2.65;81.78;97120.58;109153;1273;22538;-76
2024/02/01 05:08:51;;;;;;;7.00;4.00;;;;;;;2.62;81.67;97112.33;109100;1267;22546;-76
2024/02/01 05:11:22;;;;;;;9.20;4.90;;;;;;;2.59;81.96;97123.75;109099;1272;22527;-76
2024/02/01 05:13:59;;;;;;;4.90;3.30;;;;;;;2.56;81.95;97114.52;109123;1272;22539;-76
2024/02/01 05:16:32;;;;;;;9.00;4.50;;;;;;;2.51;81.84;97119.53;109108;1273;22576;-76
2024/02/01 05:19:08;;;;;;;6.20;3.50;;;;;;;2.51;82.17;97110.88;109108;1272;22942;-76
2024/02/01 05:21:41;;;;;;;10.20;5.30;;;;;;;2.54;82.10;97113.27;109012;1267;22500;-76
2024/02/01 05:24:14;;;;;;;9.60;5.90;;;;;;;2.58;82.12;97117.84;109139;1273;22675;-76
2024/02/01 05:26:50;;;;;;;10.30;5.10;;;;;;;2.61;82.18;97100.58;109149;1273;22514;-76
2024/02/01 05:29:23;;;;;;;11.10;4.80;;;;;;;2.61;82.01;97110.42;109146;1267;22543;-76
2024/02/01 05:31:56;;;;;;;8.30;5.10;;;;;;;2.59;81.90;97116.05;109062;1273;22767;-76
2024/02/01 05:34:29;;;;;;;7.10;3.70;;;;;;;2.56;81.94;97117.77;109140;1266;25546;-76
2024/02/01 05:37:00;;;;;;;7.60;4.50;;;;;;;2.52;81.78;97115.53;109116;1273;22525;-76
2024/02/01 05:39:31;;;;;;;8.00;4.30;;;;;;;2.58;81.85;97107.41;109093;1266;22513;-75
2024/02/01 05:42:06;;;;;;;5.90;3.60;;;;;;;2.60;81.56;97110.96;109114;1273;22544;-76
2024/02/01 05:44:40;;;;;;;6.10;3.70;;;;;;;2.60;81.45;97117.98;109144;1273;22525;-76
2024/02/01 05:47:13;;;;;;;9.20;4.10;;;;;;;2.64;81.36;97115.23;109079;1265;22536;-77
2024/02/01 05:49:44;;;;;;;7.90;3.90;;;;;;;2.67;81.19;97109.13;109099;1272;22527;-76
2024/02/01 05:52:15;;;;;;;5.90;3.60;;;;;;;2.72;81.27;97114.02;109130;1267;23070;-76
2024/02/01 05:54:47;;;;;;;6.50;3.70;;;;;;;2.79;81.26;97109.50;109126;1272;25297;-76
2024/02/01 05:57:21;;;;;;;7.40;3.80;;;;;;;2.82;81.17;97102.30;109115;1272;24282;-76
2024/02/01 05:59:56;;;;;;;6.40;3.80;;;;;;;2.87;81.26;97104.27;109092;1266;22532;-76
2024/02/01 06:02:30;;;;;;;6.50;3.30;;;;;;;2.87;81.09;97107.70;109116;1267;23794;-75
2024/02/01 06:05:03;;;;;;;8.10;3.30;;;;;;;2.91;81.14;97104.46;109093;1267;24257;-75
2024/02/01 06:07:41;;;;;;;5.50;3.70;;;;;;;2.96;81.07;97106.52;109079;1252;22595;-74
2024/02/01 06:10:13;;;;;;;6.90;4.30;;;;;;;2.98;80.94;97107.11;109153;1270;23703;-74
2024/02/01 06:12:50;;;;;;;5.20;3.70;;;;;;;2.97;81.02;97109.34;109165;1272;22517;-75
2024/02/01 06:15:21;;;;;;;7.00;3.50;;;;;;;3.00;80.94;97114.31;109171;1266;22629;-74
2024/02/01 06:17:53;;;;;;;6.80;3.70;;;;;;;3.03;80.97;97113.94;109082;1273;23684;-74
2024/02/01 06:20:24;;;;;;;6.80;4.10;;;;;;;3.10;80.93;97114.75;109118;1272;24311;-74
2024/02/01 06:23:00;;;;;;;7.80;3.50;;;;;;;3.17;80.82;97112.66;109098;1267;22690;-75
2024/02/01 06:25:32;;;;;;;7.70;4.50;;;;;;;3.20;80.67;97126.25;109098;1267;22535;-75
2024/02/01 06:28:03;;;;;;;6.10;3.50;;;;;;;3.15;80.55;97120.52;109143;1272;23303;-75
2024/02/01 06:30:38;;;;;;;8.30;4.00;;;;;;;3.22;80.76;97124.38;109053;1272;22942;-75
2024/02/01 06:33:12;;;;;;;7.70;4.30;;;;;;;3.28;80.56;97117.59;109108;1273;24236;-75
2024/02/01 06:35:45;;;;;;;6.40;3.90;;;;;;;3.33;80.45;97121.35;109144;1270;23969;-74
2024/02/01 06:38:22;;;;;;;6.10;3.40;;;;;;;3.35;80.46;97123.95;109142;1266;22624;-75
2024/02/01 06:41:07;;;;;;;9.30;5.00;;;;;;;3.41;80.22;97131.59;109154;1272;22606;-75
2024/02/01 06:44:08;;;;;;;7.20;4.20;;;;;;;3.46;80.31;97136.64;109139;1272;22651;-75
2024/02/01 06:49:39;;;;;;;8.90;4.90;;;;;;;3.60;80.22;97133.09;109046;1272;25335;-74
2024/02/01 06:52:34;;;;;;;5.00;3.40;;;;;;;3.75;80.22;97124.95;109117;1272;22572;-75
2024/02/01 06:58:13;;;;;;;8.00;3.50;;;;;;;4.05;79.16;97117.19;109171;1266;22511;-75
2024/02/01 07:01:02;;;;;;;4.20;3.20;;;;;;;4.07;78.43;97107.44;109136;1272;22553;-75
2024/02/01 07:03:44;;;;;;;6.70;3.80;;;;;;;4.09;78.18;97109.64;109105;1272;22498;-75
2024/02/01 07:06:35;;;;;;;6.80;3.90;;;;;;;4.10;78.06;97101.75;109134;1272;24957;-75
2024/02/01 07:12:29;;;;;;;10.10;4.60;;;;;;;4.33;76.71;97091.85;108909;1273;22531;-75
2024/02/01 07:15:19;;;;;;;7.70;4.00;;;;;;;4.44;76.48;97089.86;109118;1272;22513;-74
2024/02/01 07:17:59;;;;;;;7.20;4.30;;;;;;;4.54;76.45;97085.27;109134;1272;22559;-75
2024/02/01 07:20:46;;;;;;;9.40;4.10;;;;;;;4.56;76.37;97081.20;109153;1266;22507;-75
2024/02/01 07:23:48;;;;;;;9.20;4.80;;;;;;;4.58;76.24;97076.73;109109;1269;22539;-74
2024/02/01 07:26:35;;;;;;;6.00;3.60;;;;;;;4.73;75.99;97061.30;109129;1265;22678;-75
2024/02/01 08:00:31;;;;;;;11.60;5.10;;;;;;;6.03;72.72;97059.44;109135;1266;23286;-75
2024/02/01 08:03:42;;;;;;;9.00;5.20;;;;;;;6.14;72.33;97067.20;109127;1273;24459;-75
2024/02/01 08:09:13;;;;;;;8.80;6.40;;;;;;;6.31;71.58;97053.23;109090;1265;22517;-75
2024/02/01 08:11:50;;;;;;;8.60;5.60;;;;;;;6.53;71.74;97049.27;109157;1266;22489;-75
2024/02/01 08:14:25;;;;;;;7.00;4.00;;;;;;;6.82;70.69;97047.23;109107;1267;22551;-75
2024/02/01 08:16:56;;;;;;;10.10;5.20;;;;;;;6.95;69.53;97053.27;109131;1272;24276;-75
2024/02/01 08:19:27;;;;;;;9.30;6.10;;;;;;;7.22;69.85;97055.31;109113;1272;22526;-75
2024/02/01 08:22:00;;;;;;;8.80;5.60;;;;;;;7.37;69.35;97060.59;109122;1272;22525;-75
2024/02/01 08:24:31;;;;;;;8.60;6.00;;;;;;;7.53;69.61;97056.92;109144;1272;22542;-75
2024/02/01 08:27:05;;;;;;;9.70;5.90;;;;;;;8.12;69.56;97048.15;109126;1273;22637;-75
2024/02/01 08:29:39;;;;;;;10.20;6.20;;;;;;;8.42;68.58;97048.58;109133;1269;22528;-76
2024/02/01 08:32:19;;;;;;;8.20;4.20;;;;;;;8.67;67.98;97045.21;109088;1272;23902;-76
2024/02/01 08:34:54;;;;;;;8.30;6.10;;;;;;;8.47;65.68;97039.11;109105;1272;22640;-76
2024/02/01 08:37:28;;;;;;;9.90;6.80;;;;;;;8.10;65.79;97041.48;109156;1251;22623;-76
2024/02/01 08:40:02;;;;;;;10.30;6.30;;;;;;;8.03;66.86;97033.13;109151;1272;22524;-76
2024/02/01 08:42:34;;;;;;;10.20;6.80;;;;;;;8.28;67.12;97030.70;109096;1272;22551;-76
2024/02/01 08:45:08;;;;;;;11.10;7.40;;;;;;;8.20;66.27;97033.39;109100;1272;22624;-76
2024/02/01 08:47:43;;;;;;;8.90;6.10;;;;;;;8.25;66.80;97027.83;109153;1269;22479;-76
2024/02/01 08:50:21;;;;;;;8.40;5.10;;;;;;;8.10;65.86;97023.73;109110;1273;23089;-75
2024/02/01 08:52:55;;;;;;;9.90;7.10;;;;;;;7.80;65.46;97021.25;109125;1273;22524;-76
2024/02/01 08:55:27;;;;;;;8.60;6.00;;;;;;;7.50;66.03;97024.92;109119;1272;23201;-76
2024/02/01 08:58:08;;;;;;;9.80;7.40;;;;;;;7.46;66.85;97028.15;109151;1273;22517;-75
2024/02/01 09:00:46;;;;;;;10.50;6.80;;;;;;;7.34;66.16;97033.65;109110;1273;22615;-76
2024/02/01 09:03:29;;;;;;;10.80;6.20;;;;;;;7.07;66.12;97032.77;109123;1266;22597;-75
2024/02/01 09:06:10;;;;;;;10.90;6.20;;;;;;;6.87;65.50;97025.38;109121;1268;22448;-75
2024/02/01 09:08:41;;;;;;;7.10;5.00;;;;;;;6.60;65.10;97036.98;109125;1273;22716;-75
2024/02/01 09:11:15;;;;;;;6.40;4.30;;;;;;;6.41;65.45;97036.86;109095;1266;22621;-76
2024/02/01 09:13:49;;;;;;;6.30;4.30;;;;;;;6.28;65.53;97045.40;109090;1272;22562;-75
2024/02/01 09:16:31;;;;;;;9.30;5.10;;;;;;;6.15;65.56;97050.94;109105;1271;24247;-75
2024/02/01 09:19:02;;;;;;;5.50;3.50;;;;;;;6.05;65.89;97048.30;109140;1273;22558;-75
2024/02/01 09:21:36;;;;;;;8.30;5.30;;;;;;;5.97;66.01;97058.45;109105;1272;22569;-75
2024/02/01 09:24:08;;;;;;;7.10;4.00;;;;;;;5.92;65.99;97050.25;109080;1269;22921;-75
2024/02/01 09:26:42;;;;;;;8.00;4.40;;;;;;;5.87;66.19;97055.06;109105;1273;24183;-75
2024/02/01 09:29:16;;;;;;;7.10;5.00;;;;;;;5.83;66.40;97054.27;109108;1273;22630;-75
2024/02/01 09:31:46;;;;;;;8.70;4.50;;;;;;;5.82;66.55;97058.36;109094;1273;23849;-75
2024/02/01 09:34:18;;;;;;;8.90;5.00;;;;;;;5.81;66.76;97064.23;109120;1269;22538;-75
2024/02/01 09:36:51;;;;;;;7.20;4.30;;;;;;;5.81;66.95;97058.23;109100;1266;22700;-75
2024/02/01 09:39:22;;;;;;;5.50;3.90;;;;;;;5.84;66.71;97062.80;109105;1266;22532;-75
2024/02/01 09:41:58;;;;;;;7.30;4.40;;;;;;;5.86;66.92;97068.16;109088;1266;22529;-75
2024/02/01 09:44:41;;;;;;;8.80;5.40;;;;;;;5.90;67.12;97067.89;109105;1272;24129;-75
2024/02/01 09:47:13;;;;;;;6.90;3.90;;;;;;;5.96;67.12;97067.00;109121;1273;23307;-75
2024/02/01 09:49:48;;;;;;;9.30;5.40;;;;;;;6.00;67.06;97065.20;109059;1265;24200;-75
2024/02/01 09:52:24;;;;;;;7.90;4.40;;;;;;;6.02;66.91;97054.19;109142;1272;22559;-75
2024/02/01 09:54:56;;;;;;;8.40;5.40;;;;;;;6.02;67.06;97060.03;109132;1259;23264;-75
2024/02/01 09:57:28;;;;;;;11.40;6.30;;;;;;;6.04;67.31;97047.48;109129;1272;22588;-75
2024/02/01 10:00:04;;;;;;;8.20;5.10;;;;;;;6.05;67.21;97050.03;109101;1269;22695;-75
2024/02/01 10:02:35;;;;;;;10.20;5.50;;;;;;;6.05;67.36;97044.89;109121;1272;22589;-75
2024/02/01 10:05:09;;;;;;;7.00;4.70;;;;;;;6.06;67.35;97052.38;109110;1272;25440;-75
2024/02/01 10:07:42;;;;;;;7.40;4.80;;;;;;;6.06;67.18;97051.48;109082;1266;22541;-75
2024/02/01 10:10:17;;;;;;;12.20;5.90;;;;;;;6.12;67.32;97046.99;109102;1273;24062;-75
2024/02/01 10:12:48;;;;;;;9.80;4.90;;;;;;;6.16;67.24;97045.89;109084;1266;33017;-75
2024/02/01 10:15:27;;;;;;;10.60;3.90;;;;;;;6.20;67.40;97057.98;109097;1272;24384;-75
2024/02/01 10:18:06;;;;;;;5.80;4.40;;;;;;;6.25;67.36;97050.21;109052;1265;22571;-75
2024/02/01 10:20:39;;;;;;;6.90;4.50;;;;;;;6.28;67.27;97053.35;109113;1272;22562;-75
2024/02/01 10:23:15;;;;;;;8.60;5.40;;;;;;;6.30;66.54;97044.79;109088;1273;22661;-75
2024/02/01 10:25:50;;;;;;;9.70;4.80;;;;;;;6.28;66.93;97044.88;109092;1272;22517;-75
2024/02/01 10:28:23;;;;;;;8.00;4.40;;;;;;;6.30;66.97;97047.12;109115;1273;22544;-75
2024/02/01 10:31:03;;;;;;;9.20;6.30;;;;;;;6.33;67.09;97048.27;109117;1269;22563;-75
2024/02/01 10:33:36;;;;;;;9.90;4.70;;;;;;;6.41;67.44;97042.55;109070;1270;22549;-75
2024/02/01 10:36:12;;;;;;;9.10;4.80;;;;;;;6.39;67.00;97032.52;109109;1273;22730;-75
2024/02/01 10:38:53;;;;;;;12.10;5.40;;;;;;;6.30;67.12;97036.42;109082;1273;23189;-75
2024/02/01 10:41:35;;;;;;;9.30;5.90;;;;;;;6.21;66.88;97023.55;109119;1269;25501;-75
2024/02/01 10:44:08;;;;;;;12.30;6.90;;;;;;;6.12;67.31;97031.89;109083;1269;22519;-75
2024/02/01 10:46:43;;;;;;;7.80;5.30;;;;;;;6.06;67.38;97020.63;109053;1269;22512;-75
2024/02/01 10:49:21;;;;;;;10.20;5.40;;;;;;;5.96;67.55;97028.63;109105;1269;23850;-75
2024/02/01 10:51:59;;;;;;;7.40;4.70;;;;;;;5.89;67.88;97028.91;109085;1273;22754;-75
2024/02/01 10:54:37;;;;;;;9.80;5.50;;;;;;;5.83;68.03;97028.44;109130;1266;22533;-75
2024/02/01 10:57:14;;;;;;;8.40;5.30;;;;;;;5.81;68.20;97028.19;109172;1266;23792;-74
2024/02/01 10:59:47;;;;;;;7.50;4.90;;;;;;;5.76;68.46;97025.77;109132;1273;24301;-75
2024/02/01 11:02:20;;;;;;;9.90;6.60;;;;;;;5.69;69.08;97029.77;109148;1266;22540;-75
2024/02/01 11:04:54;;;;;;;14.60;8.10;;;;;;;5.60;70.17;97037.01;109081;1266;25421;-75
2024/02/01 11:07:28;;;;;;;14.60;7.90;;;;;;;5.46;70.94;97040.02;109125;1273;24144;-75
2024/02/01 11:10:01;;;;;;;12.50;7.70;;;;;;;5.35;71.90;97045.88;109083;1266;22798;-75
2024/02/01 11:12:43;;;;;;;11.40;6.80;;;;;;;5.25;72.35;97047.41;109125;1265;22582;-75
2024/02/01 11:15:16;;;;;;;;;;;;;;;5.16;73.77;97043.59;109166;1266;22505;-75
2024/02/01 11:17:51;;;;;;;11.10;5.60;;;;;;;5.07;74.43;97042.30;109120;1266;22532;-75
2024/02/01 11:20:31;;;;;;;13.70;7.50;;;;;;;4.99;74.98;97039.68;109153;1272;23666;-75
2024/02/01 11:23:16;;;;;;;14.00;8.30;;;;;;;4.93;75.41;97040.88;109060;1273;22478;-76
2024/02/01 11:25:55;;;;;;;12.40;7.00;;;;;;;4.88;75.83;97038.77;109113;1272;22623;-75
2024/02/01 11:28:36;;;;;;;14.10;8.30;;;;;;;4.82;77.23;97034.60;109101;1272;24302;-75
2024/02/01 11:31:15;;;;;;;16.90;9.60;;;;;;;4.76;77.51;97039.77;109124;1271;22522;-76
2024/02/01 11:33:45;;;;;;;;;;;;;;;4.75;77.80;97035.23;109103;1272;24501;-76
2024/02/01 11:36:19;;;;;;;12.50;7.60;;;;;;;4.75;78.84;97028.98;109138;1272;22610;-75
2024/02/01 11:38:55;;;;;;;13.20;8.30;;;;;;;4.74;79.54;97029.91;109109;1266;23044;-76
2024/02/01 11:41:28;;;;;;;14.10;9.80;;;;;;;4.73;79.90;97031.90;109112;1266;22563;-76
2024/02/01 11:43:59;;;;;;;12.50;7.90;;;;;;;4.75;80.29;97029.61;109114;1273;24211;-76
2024/02/01 11:46:31;;;;;;;8.70;5.50;;;;;;;4.73;81.16;97031.38;109089;1266;22517;-75
2024/02/01 11:49:06;;;;;;;9.00;6.00;;;;;;;4.70;82.04;97025.80;109119;1273;22598;-76
2024/02/01 11:51:43;;;;;;;9.90;5.70;;;;;;;4.67;82.40;97028.62;109144;1265;22915;-75
2024/02/01 11:54:17;;;;;;;12.50;6.00;;;;;;;4.62;82.82;97017.52;109134;1266;22572;-75
2024/02/01 11:56:51;;;;;;;9.00;6.20;;;;;;;4.59;83.08;97018.92;109115;1266;25568;-76
2024/02/01 11:59:25;;;;;;;14.90;8.30;;;;;;;4.58;83.08;97016.55;109104;1269;22690;-75
2024/02/01 12:01:57;;;;;;;14.80;6.60;;;;;;;4.58;83.46;97025.41;108190;1273;1255738;-76
2024/02/01 12:04:30;;;;;;;15.50;8.70;;;;;;;4.57;83.75;97032.95;109120;1266;22531;-75
2024/02/01 12:07:05;;;;;;;13.30;7.80;;;;;;;4.53;84.58;97032.66;109108;1269;22521;-75
2024/02/01 12:09:37;;;;;;;15.30;9.00;;;;;;;4.46;84.80;97030.77;109078;1266;22537;-75
2024/02/01 12:12:13;;;;;;;11.50;6.80;;;;;;;4.41;85.48;97029.35;109151;1259;23694;-76
2024/02/01 12:14:54;;;;;;;15.90;9.70;;;;;;;4.34;85.45;97028.88;109065;1272;23801;-76
2024/02/01 12:17:25;;;;;;;13.50;8.60;;;;;;;4.32;85.65;97033.77;109133;1266;22544;-76
2024/02/01 12:19:58;;;;;;;15.50;7.90;;;;;;;4.33;86.16;97031.73;109163;1273;22571;-76
2024/02/01 12:22:40;;;;;;;10.80;7.60;;;;;;;4.31;86.74;97027.86;109079;1273;22520;-76
2024/02/01 12:25:16;;;;;;;11.50;7.70;;;;;;;4.30;86.27;97034.04;109058;1273;22647;-76
2024/02/01 12:27:56;;;;;;;8.50;5.60;;;;;;;4.30;86.78;97027.46;109088;1270;22520;-75
2024/02/01 12:30:28;;;;;;;10.70;6.50;;;;;;;4.28;87.00;97028.74;109083;1272;23626;-76
2024/02/01 12:33:02;;;;;;;12.60;8.80;;;;;;;4.27;86.99;97030.96;109069;1265;24236;-75
2024/02/01 12:35:34;;;;;;;13.40;8.30;;;;;;;4.24;87.24;97029.44;109083;1273;22486;-76
2024/02/01 12:38:10;;;;;;;11.80;7.90;;;;;;;4.23;87.09;97026.91;109116;1271;25297;-76
2024/02/01 12:40:46;;;;;;;14.10;9.20;;;;;;;4.23;87.29;97025.02;109120;1273;22547;-76
2024/02/01 12:43:24;;;;;;;13.30;9.00;;;;;;;4.22;87.21;97020.24;109113;1272;28464;-76
2024/02/01 12:45:59;;;;;;;12.70;8.80;;;;;;;4.20;87.31;97024.56;109099;1266;22637;-76
2024/02/01 12:48:37;;;;;;;14.50;10.00;;;;;;;4.20;87.36;97018.78;109121;1266;22586;-76